createdAt,value
2019-01-13T00:01:10.132Z,17.77
2019-01-13T00:03:37.633Z,17.27
2019-01-13T00:06:05.085Z,17.25
2019-01-13T00:08:33.158Z,16.98
2019-01-13T00:11:01.434Z,15.77
2019-01-13T00:13:28.928Z,15.03
2019-01-13T00:15:56.351Z,16.33
2019-01-13T00:18:23.807Z,16.10
2019-01-13T00:20:51.272Z,15.77
2019-01-13T00:23:19.055Z,14.30
2019-01-13T00:25:46.496Z,16.37
2019-01-13T00:28:13.971Z,15.07
2019-01-13T00:30:41.411Z,17.17
2019-01-13T00:33:08.873Z,15.70
2019-01-13T00:35:36.316Z,17.03
2019-01-13T00:38:05.002Z,15.30
2019-01-13T00:40:34.594Z,14.40
2019-01-13T00:43:02.119Z,16.43
2019-01-13T00:45:29.601Z,14.53
2019-01-13T00:47:57.037Z,15.70
2019-01-13T00:50:25.737Z,15.68
2019-01-13T02:08:10.388Z,16.33
2019-01-13T02:10:37.830Z,15.07
2019-01-13T02:13:05.290Z,17.00
2019-01-13T02:15:32.735Z,18.23
2019-01-13T02:18:00.222Z,16.80
2019-01-13T02:20:27.700Z,17.70
2019-01-13T02:22:55.172Z,19.13
2019-01-13T02:25:22.618Z,17.00
2019-01-13T02:27:50.086Z,18.73
2019-01-13T02:30:17.523Z,19.03
2019-01-13T02:32:45.996Z,19.47
2019-01-13T02:35:13.614Z,18.17
2019-01-13T02:37:41.174Z,19.10
2019-01-13T02:40:10.424Z,19.27
2019-01-13T02:42:38.011Z,21.53
2019-01-13T02:45:05.530Z,21.13
2019-01-13T02:47:32.963Z,22.87
2019-01-13T02:50:00.393Z,21.07
2019-01-13T02:52:27.838Z,23.27
2019-01-13T02:54:55.287Z,19.27
2019-01-13T02:57:22.750Z,21.17
2019-01-13T02:59:50.246Z,20.23
2019-01-13T03:02:17.681Z,21.87
2019-01-13T03:04:45.173Z,21.00
2019-01-13T03:07:12.619Z,23.67
2019-01-13T03:09:40.078Z,20.62
2019-01-13T03:12:07.596Z,21.00
2019-01-13T03:14:35.055Z,19.57
2019-01-13T03:17:02.503Z,20.67
2019-01-13T03:19:29.974Z,23.57
2019-01-13T03:21:57.454Z,19.60
2019-01-13T03:24:24.904Z,16.83
2019-01-13T03:26:52.356Z,17.40
2019-01-13T03:31:55.045Z,18.10
2019-01-13T03:34:22.483Z,14.25
2019-01-13T03:36:49.958Z,17.03
2019-01-13T03:39:17.446Z,12.80
2019-01-13T03:41:44.911Z,14.57
2019-01-13T03:44:12.416Z,10.37
2019-01-13T03:46:39.879Z,9.73
2019-01-13T03:49:07.332Z,9.20
2019-01-13T03:51:35.146Z,8.00
2019-01-13T03:54:02.584Z,8.80
2019-01-13T03:56:30.054Z,7.73
2019-01-13T03:58:57.512Z,7.03
2019-01-13T04:01:24.999Z,5.67
2019-01-13T04:03:52.412Z,6.70
2019-01-13T04:06:19.856Z,7.50
2019-01-13T04:08:47.317Z,7.50
2019-01-13T04:11:14.759Z,7.17
2019-01-13T04:13:42.190Z,6.95
2019-01-13T04:16:09.619Z,7.50
2019-01-13T04:18:37.076Z,8.57
2019-01-13T04:21:05.502Z,8.18
2019-01-13T04:23:32.970Z,9.43
2019-01-13T04:26:00.424Z,10.20
2019-01-13T04:28:27.876Z,10.73
2019-01-13T04:30:55.318Z,9.70
2019-01-13T04:33:22.768Z,11.60
2019-01-13T04:35:50.720Z,11.38
2019-01-13T04:38:18.170Z,10.15
2019-01-13T04:40:45.639Z,10.30
2019-01-13T04:43:13.098Z,11.68
2019-01-13T04:45:40.550Z,12.07
2019-01-13T04:48:07.989Z,11.20
2019-01-13T04:50:35.667Z,12.82
2019-01-13T04:53:03.122Z,11.60
2019-01-13T04:55:30.580Z,12.37
2019-01-13T04:57:58.008Z,8.83
2019-01-13T05:00:25.484Z,11.73
2019-01-13T05:02:52.952Z,14.27
2019-01-13T05:05:20.403Z,13.38
2019-01-13T05:07:47.854Z,15.73
2019-01-13T05:10:17.545Z,14.77
2019-01-13T05:12:44.980Z,13.63
2019-01-13T05:15:12.458Z,11.50
2019-01-13T05:17:39.884Z,12.67
2019-01-13T05:20:07.353Z,14.10
2019-01-13T05:22:34.771Z,11.77
2019-01-13T05:25:02.235Z,15.93
2019-01-13T05:27:29.662Z,11.63
2019-01-13T05:29:57.134Z,14.77
2019-01-13T05:32:24.575Z,16.17
2019-01-13T05:34:52.042Z,14.18
2019-01-13T05:37:19.515Z,13.23
2019-01-13T05:39:46.993Z,14.52
2019-01-13T05:42:15.025Z,13.63
2019-01-13T05:44:42.439Z,13.98
2019-01-13T05:47:09.906Z,14.77
2019-01-13T05:49:37.403Z,15.33
2019-01-13T05:52:04.860Z,15.07
2019-01-13T05:54:32.320Z,15.53
2019-01-13T05:56:59.777Z,14.10
2019-01-13T05:59:27.224Z,15.15
2019-01-13T06:01:54.648Z,14.03
2019-01-13T06:04:22.113Z,15.65
2019-01-13T06:06:49.539Z,12.93
2019-01-13T06:09:16.967Z,13.20
2019-01-13T06:11:44.431Z,11.07
2019-01-13T06:14:11.873Z,13.15
2019-01-13T06:16:39.310Z,12.13
2019-01-13T06:19:06.772Z,10.33
2019-01-13T06:21:34.227Z,10.73
2019-01-13T06:24:01.678Z,8.60
2019-01-13T06:26:29.115Z,9.30
2019-01-13T06:28:57.479Z,6.87
2019-01-13T06:31:24.947Z,7.80
2019-01-13T06:33:52.401Z,5.72
2019-01-13T06:36:19.827Z,6.17
2019-01-13T06:38:47.271Z,5.55
2019-01-13T06:41:14.689Z,5.07
2019-01-13T06:43:42.131Z,5.30
2019-01-13T06:46:09.598Z,4.57
2019-01-13T06:48:37.064Z,3.80
2019-01-13T06:51:04.521Z,4.40
2019-01-13T06:53:31.956Z,3.87
2019-01-13T06:55:59.405Z,3.60
2019-01-13T06:58:26.811Z,3.57
2019-01-13T07:00:55.309Z,3.47
2019-01-13T07:03:22.777Z,3.03
2019-01-13T07:05:50.266Z,2.53
2019-01-13T07:08:17.675Z,2.53
2019-01-13T07:10:45.148Z,2.25
2019-01-13T07:13:12.583Z,2.50
2019-01-13T07:15:40.875Z,2.30
2019-01-13T07:18:08.409Z,2.70
2019-01-13T07:20:35.843Z,2.37
2019-01-13T07:23:03.282Z,2.17
2019-01-13T07:25:30.731Z,1.90
2019-01-13T07:27:58.195Z,2.30
2019-01-13T07:30:25.650Z,1.93
2019-01-13T07:32:53.095Z,2.40
2019-01-13T07:35:20.525Z,2.43
2019-01-13T07:37:47.970Z,2.60
2019-01-13T07:40:16.158Z,2.57
2019-01-13T07:42:44.522Z,2.95
2019-01-13T07:45:11.961Z,2.60
2019-01-13T07:47:39.418Z,2.87
2019-01-13T07:50:07.519Z,3.40
2019-01-13T07:52:35.146Z,3.80
2019-01-13T07:55:02.595Z,3.80
2019-01-13T07:57:30.453Z,3.57
2019-01-13T07:59:57.887Z,3.93
2019-01-13T08:02:25.447Z,4.80
2019-01-13T08:04:52.984Z,4.40
2019-01-13T08:07:20.418Z,3.83
2019-01-13T08:09:47.876Z,4.32
2019-01-13T08:12:15.320Z,4.10
2019-01-13T08:14:42.787Z,4.28
2019-01-13T08:17:11.088Z,4.00
2019-01-13T08:19:38.691Z,3.75
2019-01-13T08:22:06.157Z,4.20
2019-01-13T08:24:33.614Z,5.00
2019-01-13T08:27:01.091Z,4.97
2019-01-13T08:29:29.641Z,5.40
2019-01-13T08:31:57.062Z,5.23
2019-01-13T08:34:24.532Z,6.50
2019-01-13T08:36:52.414Z,5.90
2019-01-13T08:39:19.940Z,6.23
2019-01-13T08:41:47.391Z,7.73
2019-01-13T08:44:14.859Z,6.53
2019-01-13T08:46:42.281Z,6.78
2019-01-13T08:49:09.731Z,6.67
2019-01-13T08:51:37.954Z,7.95
2019-01-13T08:54:05.391Z,8.40
2019-01-13T08:56:32.850Z,9.05
2019-01-13T08:59:00.292Z,7.00
2019-01-13T09:01:27.740Z,8.80
2019-01-13T09:03:55.188Z,7.30
2019-01-13T09:06:23.591Z,9.13
2019-01-13T09:08:51.136Z,8.07
2019-01-13T09:11:18.599Z,8.68
2019-01-13T09:13:46.052Z,8.43
2019-01-13T09:16:13.555Z,9.57
2019-01-13T09:18:40.984Z,8.73
2019-01-13T09:21:08.443Z,8.50
2019-01-13T09:23:36.396Z,10.43
2019-01-13T09:26:03.860Z,7.87
2019-01-13T09:28:31.314Z,8.63
2019-01-13T09:30:58.779Z,9.40
2019-01-13T09:33:26.277Z,10.10
2019-01-13T09:35:53.687Z,11.40
2019-01-13T09:38:21.140Z,10.50
2019-01-13T09:40:48.660Z,9.80
2019-01-13T09:43:16.091Z,8.15
2019-01-13T09:45:43.762Z,10.37
2019-01-13T09:48:11.202Z,8.57
2019-01-13T09:50:39.313Z,10.98
2019-01-13T09:53:06.764Z,9.33
2019-01-13T09:55:34.268Z,10.43
2019-01-13T09:58:02.246Z,11.63
2019-01-13T10:00:30.460Z,15.03
2019-01-13T10:02:57.938Z,15.47
2019-01-13T10:05:25.424Z,12.20
2019-01-13T10:07:52.912Z,14.90
2019-01-13T10:10:21.658Z,14.57
2019-01-13T10:12:49.238Z,14.52
2019-01-13T10:15:19.470Z,15.10
2019-01-13T10:17:46.894Z,12.13
2019-01-13T10:20:15.124Z,15.25
2019-01-13T10:22:42.559Z,15.70
2019-01-13T10:25:10.105Z,14.57
2019-01-13T10:27:38.631Z,20.25
2019-01-13T10:30:06.821Z,17.83
2019-01-13T10:32:34.265Z,17.37
2019-01-13T10:35:02.283Z,13.97
2019-01-13T10:37:29.777Z,16.07
2019-01-13T10:39:57.257Z,16.07
2019-01-13T10:42:24.722Z,16.25
2019-01-13T10:44:53.041Z,15.35
2019-01-13T10:47:20.613Z,15.38
2019-01-13T10:49:48.071Z,14.13
2019-01-13T10:52:15.792Z,14.70
2019-01-13T10:54:43.382Z,14.63
2019-01-13T10:57:11.976Z,13.10
2019-01-13T10:59:39.471Z,12.67
2019-01-13T11:02:07.010Z,11.87
2019-01-13T11:04:35.176Z,10.50
2019-01-13T11:07:02.660Z,12.50
2019-01-13T11:09:30.116Z,10.80
2019-01-13T11:11:57.604Z,11.43
2019-01-13T11:14:25.074Z,11.45
2019-01-13T11:16:52.605Z,10.88
2019-01-13T11:19:20.104Z,10.93
2019-01-13T11:21:47.896Z,8.38
2019-01-13T11:24:15.369Z,8.13
2019-01-13T11:26:43.044Z,8.60
2019-01-13T11:29:10.505Z,8.77
2019-01-13T11:31:37.949Z,8.63
2019-01-13T11:34:05.463Z,9.03
2019-01-13T11:36:34.075Z,9.53
2019-01-13T11:39:02.531Z,8.73
2019-01-13T11:41:30.202Z,10.50
2019-01-13T11:43:57.782Z,9.27
2019-01-13T11:46:25.271Z,9.10
2019-01-13T11:48:52.715Z,7.47
2019-01-13T11:51:20.218Z,8.10
2019-01-13T11:53:47.796Z,6.91
2019-01-13T11:56:15.923Z,7.20
2019-01-13T11:58:45.541Z,7.53
2019-01-13T12:01:14.679Z,7.43
2019-01-13T12:03:42.446Z,7.50
2019-01-13T12:06:10.144Z,6.40
2019-01-13T12:08:39.211Z,7.40
2019-01-13T12:11:07.538Z,7.50
2019-01-13T12:13:35.302Z,7.20
2019-01-13T12:16:02.745Z,7.90
2019-01-13T12:18:30.237Z,4.97
2019-01-13T12:20:58.625Z,6.72
2019-01-13T12:23:27.006Z,5.87
2019-01-13T12:25:54.489Z,6.30
2019-01-13T12:28:21.953Z,3.67
2019-01-13T12:30:49.400Z,6.67
2019-01-13T12:33:24.295Z,5.37
2019-01-13T12:35:45.311Z,5.60
2019-01-13T12:38:13.585Z,5.80
2019-01-13T12:40:41.038Z,5.97
2019-01-13T12:43:08.579Z,4.40
2019-01-13T12:45:36.030Z,5.63
2019-01-13T12:48:03.609Z,6.23
2019-01-13T12:50:31.046Z,4.90
2019-01-13T12:52:58.500Z,5.90
2019-01-13T12:55:25.955Z,4.10
2019-01-13T12:57:53.772Z,5.87
2019-01-13T13:00:21.851Z,5.90
2019-01-13T13:02:49.601Z,6.00
2019-01-13T13:05:17.045Z,7.18
2019-01-13T13:07:44.536Z,5.67
2019-01-13T13:10:27.576Z,6.10
2019-01-13T13:12:55.167Z,5.62
2019-01-13T13:15:22.627Z,5.53
2019-01-13T13:17:50.151Z,5.07
2019-01-13T13:20:18.326Z,5.62
2019-01-13T13:22:46.397Z,4.53
2019-01-13T13:25:13.906Z,4.27
2019-01-13T13:27:41.356Z,4.50
2019-01-13T13:30:11.548Z,5.07
2019-01-13T13:32:38.989Z,4.70
2019-01-13T13:35:06.466Z,4.93
2019-01-13T13:37:34.733Z,4.03
2019-01-13T13:40:02.194Z,5.07
2019-01-13T13:42:30.691Z,5.00
2019-01-13T13:44:58.179Z,4.50
2019-01-13T13:47:25.617Z,4.37
2019-01-13T13:49:53.087Z,5.22
2019-01-13T13:52:20.548Z,5.30
2019-01-13T13:54:48.006Z,4.93
2019-01-13T13:57:15.465Z,4.70
2019-01-13T13:59:42.905Z,5.63
2019-01-13T14:02:10.500Z,5.33
2019-01-13T14:04:37.991Z,5.40
2019-01-13T14:07:05.437Z,5.50
2019-01-13T14:09:32.910Z,5.10
2019-01-13T14:12:00.368Z,4.90
2019-01-13T14:14:27.791Z,4.18
2019-01-13T14:16:56.971Z,5.33
2019-01-13T14:19:24.454Z,5.77
2019-01-13T14:21:53.062Z,4.80
2019-01-13T14:24:20.566Z,4.55
2019-01-13T14:26:48.009Z,4.33
2019-01-13T14:29:15.454Z,4.68
2019-01-13T14:31:42.872Z,4.70
2019-01-13T14:34:10.778Z,4.80
2019-01-13T14:36:39.169Z,5.40
2019-01-13T14:39:06.631Z,6.20
2019-01-13T14:41:34.092Z,5.30
2019-01-13T14:44:02.318Z,6.30
2019-01-13T14:46:29.781Z,6.33
2019-01-13T14:48:58.308Z,4.80
2019-01-13T14:51:25.768Z,6.00
2019-01-13T14:53:53.239Z,6.17
2019-01-13T14:56:20.672Z,6.60
2019-01-13T14:58:48.185Z,6.07
2019-01-13T15:01:15.611Z,5.07
2019-01-13T15:03:43.070Z,6.70
2019-01-13T15:06:10.946Z,6.03
2019-01-13T15:08:38.416Z,5.37
2019-01-13T15:11:05.866Z,6.10
2019-01-13T15:13:33.324Z,5.67
2019-01-13T15:16:00.762Z,6.53
2019-01-13T15:18:28.249Z,6.10
2019-01-13T15:20:55.751Z,4.97
2019-01-13T15:23:23.272Z,5.33
2019-01-13T15:25:50.728Z,6.90
2019-01-13T15:28:18.179Z,8.60
2019-01-13T15:30:47.560Z,7.80
2019-01-13T15:33:16.079Z,8.00
2019-01-13T15:35:43.520Z,7.13
2019-01-13T15:38:11.200Z,8.63
2019-01-13T15:40:38.664Z,10.00
2019-01-13T15:43:06.103Z,10.30
2019-01-13T15:45:33.540Z,9.27
2019-01-13T15:48:01.002Z,8.77
2019-01-13T15:50:28.453Z,10.43
2019-01-13T15:52:55.974Z,9.67
2019-01-13T15:55:23.457Z,12.30
2019-01-13T15:57:50.920Z,10.73
2019-01-13T16:00:18.401Z,12.60
2019-01-13T16:02:45.868Z,13.98
2019-01-13T16:05:13.356Z,13.75
2019-01-13T16:07:41.504Z,13.07
2019-01-13T16:10:09.683Z,14.33
2019-01-13T16:12:37.192Z,12.23
2019-01-13T16:15:04.633Z,11.70
2019-01-13T16:17:32.068Z,9.50
2019-01-13T16:19:59.530Z,10.53
2019-01-13T16:22:26.983Z,12.33
2019-01-13T16:24:54.407Z,12.30
2019-01-13T16:27:21.847Z,11.90
2019-01-13T16:29:49.306Z,10.93
2019-01-13T16:32:16.741Z,10.63
2019-01-13T16:34:44.208Z,12.10
2019-01-13T16:37:12.070Z,11.50
2019-01-13T16:39:39.532Z,11.70
2019-01-13T16:42:06.957Z,10.53
2019-01-13T16:44:34.396Z,11.93
2019-01-13T16:47:01.824Z,10.93
2019-01-13T16:49:29.267Z,10.35
2019-01-13T16:51:56.702Z,10.20
2019-01-13T16:54:24.176Z,9.80
2019-01-13T16:56:51.660Z,10.48
2019-01-13T16:59:19.074Z,9.25
2019-01-13T17:01:46.511Z,10.27
2019-01-13T17:04:13.961Z,9.27
2019-01-13T17:06:42.002Z,9.47
2019-01-13T17:09:09.446Z,8.63
2019-01-13T17:11:36.888Z,8.17
2019-01-13T17:14:06.222Z,8.30
2019-01-13T17:16:33.729Z,8.83
2019-01-13T17:19:01.152Z,9.50
2019-01-13T17:21:28.617Z,8.70
2019-01-13T17:23:56.061Z,8.00
2019-01-13T17:26:23.497Z,8.63
2019-01-13T17:28:50.979Z,9.13
2019-01-13T17:31:18.407Z,9.30
2019-01-13T17:33:45.868Z,9.23
2019-01-13T17:36:13.345Z,8.00
2019-01-13T17:38:40.774Z,8.43
2019-01-13T17:41:08.339Z,7.63
2019-01-13T17:43:35.791Z,8.97
2019-01-13T17:46:03.246Z,9.32
2019-01-13T17:48:30.665Z,7.80
2019-01-13T17:50:58.126Z,7.25
2019-01-13T17:53:25.579Z,7.23
2019-01-13T17:55:53.011Z,6.03
2019-01-13T17:58:20.445Z,6.17
2019-01-13T18:00:48.814Z,4.43
2019-01-13T18:03:16.257Z,5.40
2019-01-13T18:05:43.691Z,5.30
2019-01-13T18:08:11.120Z,4.53
2019-01-13T18:10:38.582Z,3.27
2019-01-13T18:13:06.339Z,2.33
2019-01-13T18:15:33.800Z,1.43
2019-01-13T18:18:01.307Z,2.00
2019-01-13T18:20:29.343Z,1.97
2019-01-13T18:22:56.755Z,2.10
2019-01-13T18:25:24.490Z,1.57
2019-01-13T18:27:51.992Z,1.50
2019-01-13T18:30:20.669Z,1.83
2019-01-13T18:32:48.126Z,1.70
2019-01-13T18:35:15.561Z,1.30
2019-01-13T18:37:44.212Z,1.77
2019-01-13T18:40:14.224Z,1.98
2019-01-13T18:42:41.637Z,1.60
2019-01-13T18:45:09.125Z,1.60
2019-01-13T18:47:36.567Z,1.93
2019-01-13T18:50:04.002Z,1.43
2019-01-13T18:52:31.456Z,1.00
2019-01-13T18:54:58.924Z,1.80
2019-01-13T18:57:26.363Z,1.70
2019-01-13T18:59:53.808Z,1.97
2019-01-13T19:02:21.231Z,1.93
2019-01-13T19:04:48.773Z,2.10
2019-01-13T19:07:16.201Z,1.70
2019-01-13T19:09:43.636Z,1.90
2019-01-13T19:12:11.068Z,2.13
2019-01-13T19:14:38.536Z,1.63
2019-01-13T19:17:06.034Z,2.23
2019-01-13T19:19:33.537Z,1.93
2019-01-13T19:22:00.981Z,2.00
2019-01-13T19:24:29.353Z,1.67
2019-01-13T19:26:56.890Z,2.50
2019-01-13T19:29:24.356Z,2.15
2019-01-13T19:31:51.801Z,2.00
2019-01-13T19:34:19.229Z,2.60
2019-01-13T19:36:46.693Z,2.70
2019-01-13T19:39:14.119Z,2.80
2019-01-13T19:41:41.585Z,2.33
2019-01-13T19:44:09.068Z,2.40
2019-01-13T19:46:36.511Z,2.27
2019-01-13T19:49:03.973Z,2.50
2019-01-13T19:51:31.385Z,2.20
2019-01-13T19:53:58.845Z,1.92
2019-01-13T19:56:26.271Z,2.70
2019-01-13T19:58:53.711Z,2.93
2019-01-13T20:01:21.142Z,3.08
2019-01-13T20:03:48.642Z,2.25
2019-01-13T20:06:16.061Z,2.53
2019-01-13T20:08:43.607Z,2.80
2019-01-13T20:11:12.079Z,2.40
2019-01-13T20:13:39.773Z,3.13
2019-01-13T20:16:07.208Z,2.97
2019-01-13T20:18:34.694Z,3.10
2019-01-13T20:21:02.158Z,3.30
2019-01-13T20:23:29.574Z,3.00
2019-01-13T20:25:57.042Z,2.60
2019-01-13T20:28:24.486Z,2.97
2019-01-13T20:30:51.930Z,3.60
2019-01-13T20:33:19.398Z,3.70
2019-01-13T20:35:46.842Z,3.43
2019-01-13T20:38:14.296Z,2.97
2019-01-13T20:40:41.752Z,2.63
2019-01-13T20:43:09.171Z,3.77
2019-01-13T20:45:36.626Z,2.93
2019-01-13T20:48:04.088Z,3.33
2019-01-13T20:50:32.421Z,3.00
2019-01-13T20:52:59.927Z,3.12
2019-01-13T20:55:27.354Z,3.20
2019-01-13T20:57:54.817Z,3.30
2019-01-13T21:00:23.770Z,3.33
2019-01-13T21:02:51.221Z,3.07
2019-01-13T21:05:18.681Z,3.20
2019-01-13T21:07:46.111Z,3.35
2019-01-13T21:10:14.240Z,3.08
2019-01-13T21:12:41.670Z,3.37
2019-01-13T21:15:09.854Z,3.53
2019-01-13T21:17:37.519Z,3.67
2019-01-13T21:20:04.979Z,2.87
2019-01-13T21:22:32.421Z,3.00
2019-01-13T21:24:59.866Z,3.17
2019-01-13T21:27:27.312Z,2.58
2019-01-13T21:30:01.206Z,2.50
2019-01-13T21:32:22.282Z,2.50
2019-01-13T21:34:49.723Z,2.33
2019-01-13T21:37:17.157Z,2.17
2019-01-13T21:39:44.569Z,2.40
2019-01-13T21:42:12.087Z,2.30
2019-01-13T21:44:39.494Z,2.33
2019-01-13T21:47:06.925Z,2.50
2019-01-13T21:49:34.393Z,2.83
2019-01-13T21:52:01.811Z,2.50
2019-01-13T21:54:29.249Z,2.80
2019-01-13T21:56:56.701Z,2.47
2019-01-13T21:59:24.143Z,1.97
2019-01-13T22:01:51.619Z,1.62
2019-01-13T22:04:19.086Z,2.00
2019-01-13T22:06:46.526Z,1.50
2019-01-13T22:09:14.862Z,1.85
2019-01-13T22:11:42.295Z,1.50
2019-01-13T22:14:09.724Z,1.80
2019-01-13T22:16:37.164Z,1.93
2019-01-13T22:19:04.604Z,1.70
2019-01-13T22:21:32.063Z,1.95
2019-01-13T22:23:59.498Z,1.60
2019-01-13T22:26:26.936Z,2.17
2019-01-13T22:28:55.368Z,2.53
2019-01-13T22:31:22.870Z,2.00
2019-01-13T22:33:50.326Z,2.70
2019-01-13T22:36:17.780Z,2.17
2019-01-13T22:38:45.229Z,2.30
2019-01-13T22:41:12.645Z,2.63
2019-01-13T22:43:40.141Z,2.17
2019-01-13T22:46:07.572Z,2.93
2019-01-13T22:48:35.010Z,3.05
2019-01-13T22:51:02.462Z,2.70
2019-01-13T22:53:29.930Z,2.87
2019-01-13T22:55:57.393Z,2.70
2019-01-13T22:58:24.842Z,3.53
2019-01-13T23:01:12.008Z,2.80
2019-01-13T23:03:39.473Z,3.30
2019-01-13T23:06:07.065Z,2.93
2019-01-13T23:08:34.833Z,2.67
2019-01-13T23:11:02.511Z,2.90
2019-01-13T23:13:30.080Z,3.03
2019-01-13T23:15:57.539Z,3.58
2019-01-13T23:18:24.985Z,3.07
2019-01-13T23:20:52.420Z,3.62
2019-01-13T23:23:19.864Z,2.78
2019-01-13T23:25:47.381Z,2.53
2019-01-13T23:28:15.559Z,2.65
2019-01-13T23:30:42.994Z,2.97
2019-01-13T23:33:10.455Z,2.80
2019-01-13T23:35:37.898Z,2.87
2019-01-13T23:38:05.357Z,3.30
2019-01-13T23:40:32.819Z,3.92
2019-01-13T23:43:00.261Z,3.93
2019-01-13T23:45:27.773Z,3.97
2019-01-13T23:47:55.261Z,3.13
2019-01-13T23:50:22.700Z,2.87
2019-01-13T23:52:50.174Z,3.03
2019-01-13T23:55:17.591Z,3.30
2019-01-13T23:57:45.940Z,3.35
